sensor_id;sensor_type;location;lat;lon;timestamp;P1;durP1;ratioP1;P2;durP2;ratioP2
15952;SDS011;8075;47.766;8.846;2023-08-21T00:02:02;6.32;;;5.80;;
15952;SDS011;8075;47.766;8.846;2023-08-21T00:04:29;5.85;;;5.35;;
15952;SDS011;8075;47.766;8.846;2023-08-21T00:06:55;6.60;;;6.10;;
15952;SDS011;8075;47.766;8.846;2023-08-21T00:09:21;5.93;;;5.33;;
15952;SDS011;8075;47.766;8.846;2023-08-21T00:11:47;5.80;;;5.30;;
15952;SDS011;8075;47.766;8.846;2023-08-21T00:14:13;5.80;;;5.30;;
15952;SDS011;8075;47.766;8.846;2023-08-21T00:16:39;6.03;;;5.53;;
15952;SDS011;8075;47.766;8.846;2023-08-21T00:19:05;6.17;;;5.67;;
15952;SDS011;8075;47.766;8.846;2023-08-21T00:21:31;5.77;;;5.37;;
15952;SDS011;8075;47.766;8.846;2023-08-21T00:23:57;6.20;;;5.70;;
15952;SDS011;8075;47.766;8.846;2023-08-21T00:26:23;5.57;;;5.10;;
15952;SDS011;8075;47.766;8.846;2023-08-21T00:28:49;5.60;;;5.13;;
15952;SDS011;8075;47.766;8.846;2023-08-21T00:31:15;5.63;;;5.22;;
15952;SDS011;8075;47.766;8.846;2023-08-21T00:33:41;5.60;;;5.20;;
15952;SDS011;8075;47.766;8.846;2023-08-21T00:36:07;5.90;;;5.40;;
15952;SDS011;8075;47.766;8.846;2023-08-21T00:38:34;5.90;;;5.40;;
15952;SDS011;8075;47.766;8.846;2023-08-21T00:41:00;5.60;;;5.20;;
15952;SDS011;8075;47.766;8.846;2023-08-21T00:43:26;6.03;;;5.53;;
15952;SDS011;8075;47.766;8.846;2023-08-21T00:45:52;6.13;;;5.63;;
15952;SDS011;8075;47.766;8.846;2023-08-21T00:48:18;6.25;;;5.75;;
15952;SDS011;8075;47.766;8.846;2023-08-21T00:50:45;5.88;;;5.38;;
15952;SDS011;8075;47.766;8.846;2023-08-21T00:53:11;6.30;;;5.80;;
15952;SDS011;8075;47.766;8.846;2023-08-21T00:55:37;6.00;;;5.50;;
15952;SDS011;8075;47.766;8.846;2023-08-21T00:58:03;6.18;;;5.60;;
15952;SDS011;8075;47.766;8.846;2023-08-21T01:00:30;6.15;;;5.65;;
15952;SDS011;8075;47.766;8.846;2023-08-21T01:02:56;5.93;;;5.43;;
15952;SDS011;8075;47.766;8.846;2023-08-21T01:05:22;6.25;;;5.75;;
15952;SDS011;8075;47.766;8.846;2023-08-21T01:07:53;6.00;;;5.50;;
15952;SDS011;8075;47.766;8.846;2023-08-21T01:10:22;6.03;;;5.63;;
15952;SDS011;8075;47.766;8.846;2023-08-21T01:13:01;6.20;;;5.80;;
15952;SDS011;8075;47.766;8.846;2023-08-21T01:15:28;6.07;;;5.57;;
15952;SDS011;8075;47.766;8.846;2023-08-21T01:17:55;6.03;;;5.45;;
15952;SDS011;8075;47.766;8.846;2023-08-21T01:20:21;6.10;;;5.55;;
15952;SDS011;8075;47.766;8.846;2023-08-21T01:22:47;6.20;;;5.70;;
15952;SDS011;8075;47.766;8.846;2023-08-21T01:25:15;5.82;;;5.38;;
15952;SDS011;8075;47.766;8.846;2023-08-21T01:27:43;5.95;;;5.55;;
15952;SDS011;8075;47.766;8.846;2023-08-21T01:30:10;5.97;;;5.57;;
15952;SDS011;8075;47.766;8.846;2023-08-21T01:33:18;6.05;;;5.45;;
15952;SDS011;8075;47.766;8.846;2023-08-21T01:35:26;6.05;;;5.53;;
15952;SDS011;8075;47.766;8.846;2023-08-21T01:37:53;5.82;;;5.43;;
15952;SDS011;8075;47.766;8.846;2023-08-21T01:40:21;5.82;;;5.32;;
15952;SDS011;8075;47.766;8.846;2023-08-21T01:42:47;6.15;;;5.65;;
15952;SDS011;8075;47.766;8.846;2023-08-21T01:45:13;6.20;;;5.60;;
15952;SDS011;8075;47.766;8.846;2023-08-21T01:47:39;6.28;;;5.68;;
15952;SDS011;8075;47.766;8.846;2023-08-21T01:50:05;6.07;;;5.57;;
15952;SDS011;8075;47.766;8.846;2023-08-21T01:52:31;6.03;;;5.53;;
15952;SDS011;8075;47.766;8.846;2023-08-21T01:54:57;5.80;;;5.40;;
15952;SDS011;8075;47.766;8.846;2023-08-21T01:57:23;6.20;;;5.70;;
15952;SDS011;8075;47.766;8.846;2023-08-21T01:59:49;6.32;;;5.82;;
15952;SDS011;8075;47.766;8.846;2023-08-21T02:02:15;6.38;;;5.90;;
15952;SDS011;8075;47.766;8.846;2023-08-21T02:04:41;6.00;;;5.60;;
15952;SDS011;8075;47.766;8.846;2023-08-21T02:07:07;6.13;;;5.63;;
15952;SDS011;8075;47.766;8.846;2023-08-21T02:09:33;5.70;;;5.30;;
15952;SDS011;8075;47.766;8.846;2023-08-21T02:11:59;6.30;;;5.70;;
15952;SDS011;8075;47.766;8.846;2023-08-21T02:14:25;6.40;;;5.80;;
15952;SDS011;8075;47.766;8.846;2023-08-21T02:16:51;6.40;;;5.82;;
15952;SDS011;8075;47.766;8.846;2023-08-21T02:19:17;6.43;;;5.93;;
15952;SDS011;8075;47.766;8.846;2023-08-21T02:21:43;6.25;;;5.75;;
15952;SDS011;8075;47.766;8.846;2023-08-21T02:24:09;6.30;;;5.90;;
15952;SDS011;8075;47.766;8.846;2023-08-21T02:26:35;6.00;;;5.60;;
15952;SDS011;8075;47.766;8.846;2023-08-21T02:29:01;5.85;;;5.40;;
15952;SDS011;8075;47.766;8.846;2023-08-21T02:31:28;6.47;;;5.82;;
15952;SDS011;8075;47.766;8.846;2023-08-21T02:33:54;6.40;;;5.90;;
15952;SDS011;8075;47.766;8.846;2023-08-21T02:36:20;6.50;;;5.90;;
15952;SDS011;8075;47.766;8.846;2023-08-21T02:38:46;6.97;;;6.30;;
15952;SDS011;8075;47.766;8.846;2023-08-21T02:41:12;6.72;;;6.22;;
15952;SDS011;8075;47.766;8.846;2023-08-21T02:43:38;6.60;;;6.18;;
15952;SDS011;8075;47.766;8.846;2023-08-21T02:46:04;6.47;;;6.00;;
15952;SDS011;8075;47.766;8.846;2023-08-21T02:48:30;6.80;;;6.15;;
15952;SDS011;8075;47.766;8.846;2023-08-21T02:50:57;6.10;;;5.70;;
15952;SDS011;8075;47.766;8.846;2023-08-21T02:53:24;6.68;;;6.07;;
15952;SDS011;8075;47.766;8.846;2023-08-21T02:55:50;6.10;;;5.50;;
15952;SDS011;8075;47.766;8.846;2023-08-21T02:58:16;6.35;;;5.95;;
15952;SDS011;8075;47.766;8.846;2023-08-21T03:00:42;6.80;;;6.30;;
15952;SDS011;8075;47.766;8.846;2023-08-21T03:03:07;6.45;;;5.93;;
15952;SDS011;8075;47.766;8.846;2023-08-21T03:05:33;6.82;;;6.10;;
15952;SDS011;8075;47.766;8.846;2023-08-21T03:07:59;6.30;;;5.88;;
15952;SDS011;8075;47.766;8.846;2023-08-21T03:10:25;7.32;;;6.63;;
15952;SDS011;8075;47.766;8.846;2023-08-21T03:12:53;6.43;;;5.82;;
15952;SDS011;8075;47.766;8.846;2023-08-21T03:15:20;6.07;;;5.60;;
15952;SDS011;8075;47.766;8.846;2023-08-21T03:17:46;7.33;;;6.57;;
15952;SDS011;8075;47.766;8.846;2023-08-21T03:20:12;6.37;;;5.87;;
15952;SDS011;8075;47.766;8.846;2023-08-21T03:22:38;6.53;;;5.93;;
15952;SDS011;8075;47.766;8.846;2023-08-21T03:25:04;6.33;;;5.80;;
15952;SDS011;8075;47.766;8.846;2023-08-21T03:27:30;6.30;;;5.90;;
15952;SDS011;8075;47.766;8.846;2023-08-21T03:29:56;6.43;;;5.88;;
15952;SDS011;8075;47.766;8.846;2023-08-21T03:32:25;6.73;;;6.23;;
15952;SDS011;8075;47.766;8.846;2023-08-21T03:34:51;6.60;;;6.10;;
15952;SDS011;8075;47.766;8.846;2023-08-21T03:37:17;6.20;;;5.80;;
15952;SDS011;8075;47.766;8.846;2023-08-21T03:39:43;6.72;;;6.22;;
15952;SDS011;8075;47.766;8.846;2023-08-21T03:42:09;6.70;;;6.13;;
15952;SDS011;8075;47.766;8.846;2023-08-21T03:44:37;6.65;;;6.15;;
15952;SDS011;8075;47.766;8.846;2023-08-21T03:47:03;6.78;;;6.18;;
15952;SDS011;8075;47.766;8.846;2023-08-21T03:49:29;6.75;;;6.15;;
15952;SDS011;8075;47.766;8.846;2023-08-21T03:51:55;7.35;;;6.55;;
15952;SDS011;8075;47.766;8.846;2023-08-21T03:54:21;6.43;;;6.03;;
15952;SDS011;8075;47.766;8.846;2023-08-21T03:56:47;7.13;;;6.43;;
15952;SDS011;8075;47.766;8.846;2023-08-21T03:59:13;6.78;;;6.18;;
15952;SDS011;8075;47.766;8.846;2023-08-21T04:01:39;6.80;;;6.20;;
15952;SDS011;8075;47.766;8.846;2023-08-21T04:04:05;6.97;;;6.40;;
15952;SDS011;8075;47.766;8.846;2023-08-21T04:06:31;5.93;;;5.50;;
15952;SDS011;8075;47.766;8.846;2023-08-21T04:08:57;6.10;;;5.70;;
15952;SDS011;8075;47.766;8.846;2023-08-21T04:11:23;6.82;;;6.25;;
15952;SDS011;8075;47.766;8.846;2023-08-21T04:13:49;6.70;;;6.10;;
15952;SDS011;8075;47.766;8.846;2023-08-21T04:16:15;6.40;;;5.90;;
15952;SDS011;8075;47.766;8.846;2023-08-21T04:18:42;6.97;;;6.40;;
15952;SDS011;8075;47.766;8.846;2023-08-21T04:21:08;7.00;;;6.40;;
15952;SDS011;8075;47.766;8.846;2023-08-21T04:23:35;7.18;;;6.60;;
15952;SDS011;8075;47.766;8.846;2023-08-21T04:26:01;7.00;;;6.47;;
15952;SDS011;8075;47.766;8.846;2023-08-21T04:28:28;6.75;;;6.25;;
15952;SDS011;8075;47.766;8.846;2023-08-21T04:30:54;7.40;;;6.80;;
15952;SDS011;8075;47.766;8.846;2023-08-21T04:33:20;7.40;;;6.80;;
15952;SDS011;8075;47.766;8.846;2023-08-21T04:35:46;7.30;;;6.60;;
15952;SDS011;8075;47.766;8.846;2023-08-21T04:38:12;6.80;;;6.20;;
15952;SDS011;8075;47.766;8.846;2023-08-21T04:40:38;6.93;;;6.40;;
15952;SDS011;8075;47.766;8.846;2023-08-21T04:43:04;7.05;;;6.50;;
15952;SDS011;8075;47.766;8.846;2023-08-21T04:45:30;7.72;;;7.18;;
15952;SDS011;8075;47.766;8.846;2023-08-21T04:47:56;7.30;;;6.50;;
15952;SDS011;8075;47.766;8.846;2023-08-21T04:50:22;7.80;;;6.85;;
15952;SDS011;8075;47.766;8.846;2023-08-21T04:52:48;7.22;;;6.72;;
15952;SDS011;8075;47.766;8.846;2023-08-21T04:55:15;7.50;;;6.80;;
15952;SDS011;8075;47.766;8.846;2023-08-21T04:57:41;6.57;;;6.07;;
15952;SDS011;8075;47.766;8.846;2023-08-21T05:00:07;7.47;;;6.78;;
15952;SDS011;8075;47.766;8.846;2023-08-21T05:02:34;8.02;;;7.28;;
15952;SDS011;8075;47.766;8.846;2023-08-21T05:05:00;6.90;;;6.35;;
15952;SDS011;8075;47.766;8.846;2023-08-21T05:07:26;7.50;;;6.80;;
15952;SDS011;8075;47.766;8.846;2023-08-21T05:09:52;7.28;;;6.78;;
15952;SDS011;8075;47.766;8.846;2023-08-21T05:12:18;6.65;;;6.15;;
15952;SDS011;8075;47.766;8.846;2023-08-21T05:14:44;6.75;;;6.25;;
15952;SDS011;8075;47.766;8.846;2023-08-21T05:17:10;7.10;;;6.50;;
15952;SDS011;8075;47.766;8.846;2023-08-21T05:19:36;6.68;;;6.00;;
15952;SDS011;8075;47.766;8.846;2023-08-21T05:22:02;7.28;;;6.68;;
15952;SDS011;8075;47.766;8.846;2023-08-21T05:24:28;7.80;;;7.20;;
15952;SDS011;8075;47.766;8.846;2023-08-21T05:26:54;6.93;;;6.32;;
15952;SDS011;8075;47.766;8.846;2023-08-21T05:29:20;7.10;;;6.40;;
15952;SDS011;8075;47.766;8.846;2023-08-21T05:31:46;8.63;;;7.87;;
15952;SDS011;8075;47.766;8.846;2023-08-21T05:34:12;9.30;;;8.47;;
15952;SDS011;8075;47.766;8.846;2023-08-21T05:36:38;9.27;;;8.45;;
15952;SDS011;8075;47.766;8.846;2023-08-21T05:39:05;9.90;;;9.10;;
15952;SDS011;8075;47.766;8.846;2023-08-21T05:41:32;8.52;;;7.82;;
15952;SDS011;8075;47.766;8.846;2023-08-21T05:43:58;8.15;;;7.47;;
15952;SDS011;8075;47.766;8.846;2023-08-21T05:46:24;9.33;;;8.60;;
15952;SDS011;8075;47.766;8.846;2023-08-21T05:48:50;7.73;;;7.13;;
15952;SDS011;8075;47.766;8.846;2023-08-21T05:51:16;7.77;;;7.17;;
15952;SDS011;8075;47.766;8.846;2023-08-21T05:53:41;7.53;;;6.93;;
15952;SDS011;8075;47.766;8.846;2023-08-21T05:56:07;7.57;;;6.88;;
15952;SDS011;8075;47.766;8.846;2023-08-21T05:58:33;8.00;;;7.45;;
15952;SDS011;8075;47.766;8.846;2023-08-21T06:01:00;8.73;;;7.93;;
15952;SDS011;8075;47.766;8.846;2023-08-21T06:03:26;8.07;;;7.43;;
15952;SDS011;8075;47.766;8.846;2023-08-21T06:05:51;8.73;;;7.90;;
15952;SDS011;8075;47.766;8.846;2023-08-21T06:08:17;8.45;;;7.65;;
15952;SDS011;8075;47.766;8.846;2023-08-21T06:10:43;9.60;;;8.65;;
15952;SDS011;8075;47.766;8.846;2023-08-21T06:13:09;9.00;;;8.30;;
15952;SDS011;8075;47.766;8.846;2023-08-21T06:15:35;8.52;;;7.63;;
15952;SDS011;8075;47.766;8.846;2023-08-21T06:18:01;8.10;;;7.40;;
15952;SDS011;8075;47.766;8.846;2023-08-21T06:20:27;9.23;;;8.32;;
15952;SDS011;8075;47.766;8.846;2023-08-21T06:22:53;8.05;;;7.45;;
15952;SDS011;8075;47.766;8.846;2023-08-21T06:25:19;8.70;;;7.80;;
15952;SDS011;8075;47.766;8.846;2023-08-21T06:27:46;10.35;;;9.38;;
15952;SDS011;8075;47.766;8.846;2023-08-21T06:30:12;10.00;;;8.93;;
15952;SDS011;8075;47.766;8.846;2023-08-21T06:32:38;9.43;;;8.63;;
15952;SDS011;8075;47.766;8.846;2023-08-21T06:35:04;8.40;;;7.70;;
15952;SDS011;8075;47.766;8.846;2023-08-21T06:37:30;9.55;;;8.65;;
15952;SDS011;8075;47.766;8.846;2023-08-21T06:39:56;10.23;;;9.20;;
15952;SDS011;8075;47.766;8.846;2023-08-21T06:42:22;14.60;;;12.50;;
15952;SDS011;8075;47.766;8.846;2023-08-21T06:44:48;13.43;;;12.13;;
15952;SDS011;8075;47.766;8.846;2023-08-21T06:47:15;14.82;;;12.90;;
15952;SDS011;8075;47.766;8.846;2023-08-21T06:49:41;14.43;;;12.60;;
15952;SDS011;8075;47.766;8.846;2023-08-21T06:52:07;14.88;;;12.70;;
15952;SDS011;8075;47.766;8.846;2023-08-21T06:54:33;13.27;;;11.98;;
15952;SDS011;8075;47.766;8.846;2023-08-21T06:56:59;13.43;;;12.02;;
15952;SDS011;8075;47.766;8.846;2023-08-21T06:59:25;12.68;;;11.43;;
15952;SDS011;8075;47.766;8.846;2023-08-21T07:01:51;12.48;;;10.35;;
15952;SDS011;8075;47.766;8.846;2023-08-21T07:04:17;13.15;;;10.55;;
15952;SDS011;8075;47.766;8.846;2023-08-21T07:06:43;11.50;;;10.35;;
15952;SDS011;8075;47.766;8.846;2023-08-21T07:09:09;12.05;;;10.98;;
15952;SDS011;8075;47.766;8.846;2023-08-21T07:11:35;14.38;;;12.15;;
15952;SDS011;8075;47.766;8.846;2023-08-21T07:14:01;12.40;;;11.15;;
15952;SDS011;8075;47.766;8.846;2023-08-21T07:16:27;17.02;;;13.40;;
15952;SDS011;8075;47.766;8.846;2023-08-21T07:18:53;14.18;;;12.02;;
15952;SDS011;8075;47.766;8.846;2023-08-21T07:21:20;12.70;;;11.40;;
15952;SDS011;8075;47.766;8.846;2023-08-21T07:23:46;13.00;;;10.65;;
15952;SDS011;8075;47.766;8.846;2023-08-21T07:26:12;10.80;;;9.70;;
15952;SDS011;8075;47.766;8.846;2023-08-21T07:28:38;11.03;;;9.80;;
15952;SDS011;8075;47.766;8.846;2023-08-21T07:31:04;13.40;;;9.93;;
15952;SDS011;8075;47.766;8.846;2023-08-21T07:33:30;12.17;;;9.80;;
15952;SDS011;8075;47.766;8.846;2023-08-21T07:36:02;12.80;;;11.52;;
15952;SDS011;8075;47.766;8.846;2023-08-21T07:38:29;13.25;;;11.07;;
15952;SDS011;8075;47.766;8.846;2023-08-21T07:41:02;14.00;;;11.20;;
15952;SDS011;8075;47.766;8.846;2023-08-21T07:43:28;10.02;;;9.02;;
15952;SDS011;8075;47.766;8.846;2023-08-21T07:45:54;11.23;;;8.65;;
15952;SDS011;8075;47.766;8.846;2023-08-21T07:48:20;8.82;;;7.28;;
15952;SDS011;8075;47.766;8.846;2023-08-21T07:50:52;7.82;;;7.00;;
15952;SDS011;8075;47.766;8.846;2023-08-21T07:53:18;9.90;;;7.97;;
15952;SDS011;8075;47.766;8.846;2023-08-21T07:55:44;9.32;;;6.97;;
15952;SDS011;8075;47.766;8.846;2023-08-21T07:58:11;11.52;;;7.30;;
15952;SDS011;8075;47.766;8.846;2023-08-21T08:00:38;9.83;;;8.30;;
15952;SDS011;8075;47.766;8.846;2023-08-21T08:03:04;10.05;;;7.50;;
15952;SDS011;8075;47.766;8.846;2023-08-21T08:05:30;7.68;;;7.03;;
15952;SDS011;8075;47.766;8.846;2023-08-21T08:07:56;8.18;;;7.40;;
15952;SDS011;8075;47.766;8.846;2023-08-21T08:10:23;12.90;;;8.60;;
15952;SDS011;8075;47.766;8.846;2023-08-21T08:12:49;10.00;;;8.02;;
15952;SDS011;8075;47.766;8.846;2023-08-21T08:15:15;7.22;;;6.53;;
15952;SDS011;8075;47.766;8.846;2023-08-21T08:17:41;7.68;;;6.88;;
15952;SDS011;8075;47.766;8.846;2023-08-21T08:20:08;8.07;;;7.05;;
15952;SDS011;8075;47.766;8.846;2023-08-21T08:22:34;7.80;;;6.10;;
15952;SDS011;8075;47.766;8.846;2023-08-21T08:25:00;8.48;;;7.53;;
15952;SDS011;8075;47.766;8.846;2023-08-21T08:27:26;16.67;;;11.50;;
15952;SDS011;8075;47.766;8.846;2023-08-21T08:29:52;13.43;;;10.02;;
15952;SDS011;8075;47.766;8.846;2023-08-21T08:32:18;10.50;;;9.30;;
15952;SDS011;8075;47.766;8.846;2023-08-21T08:34:44;11.10;;;10.00;;
15952;SDS011;8075;47.766;8.846;2023-08-21T08:37:11;12.30;;;10.88;;
15952;SDS011;8075;47.766;8.846;2023-08-21T08:39:37;12.02;;;10.57;;
15952;SDS011;8075;47.766;8.846;2023-08-21T08:42:03;16.40;;;12.90;;
15952;SDS011;8075;47.766;8.846;2023-08-21T08:44:31;17.38;;;12.63;;
15952;SDS011;8075;47.766;8.846;2023-08-21T08:46:58;16.15;;;12.82;;
15952;SDS011;8075;47.766;8.846;2023-08-21T08:49:25;15.52;;;12.48;;
15952;SDS011;8075;47.766;8.846;2023-08-21T08:51:51;12.90;;;10.65;;
15952;SDS011;8075;47.766;8.846;2023-08-21T08:54:18;12.93;;;10.23;;
15952;SDS011;8075;47.766;8.846;2023-08-21T08:56:45;11.70;;;9.77;;
15952;SDS011;8075;47.766;8.846;2023-08-21T08:59:11;10.38;;;8.43;;
15952;SDS011;8075;47.766;8.846;2023-08-21T09:01:39;13.57;;;10.15;;
15952;SDS011;8075;47.766;8.846;2023-08-21T09:04:05;16.87;;;10.47;;
15952;SDS011;8075;47.766;8.846;2023-08-21T09:06:32;12.27;;;9.97;;
15952;SDS011;8075;47.766;8.846;2023-08-21T09:08:58;12.00;;;9.60;;
15952;SDS011;8075;47.766;8.846;2023-08-21T09:11:24;11.48;;;10.00;;
15952;SDS011;8075;47.766;8.846;2023-08-21T09:13:51;16.00;;;11.52;;
15952;SDS011;8075;47.766;8.846;2023-08-21T09:16:18;15.40;;;11.25;;
15952;SDS011;8075;47.766;8.846;2023-08-21T09:18:52;13.48;;;10.20;;
15952;SDS011;8075;47.766;8.846;2023-08-21T09:21:19;9.80;;;7.97;;
15952;SDS011;8075;47.766;8.846;2023-08-21T09:23:45;8.57;;;7.70;;
15952;SDS011;8075;47.766;8.846;2023-08-21T09:26:17;8.68;;;7.78;;
15952;SDS011;8075;47.766;8.846;2023-08-21T09:28:45;9.40;;;8.40;;
15952;SDS011;8075;47.766;8.846;2023-08-21T09:31:11;11.02;;;8.23;;
15952;SDS011;8075;47.766;8.846;2023-08-21T09:33:37;8.88;;;7.80;;
15952;SDS011;8075;47.766;8.846;2023-08-21T09:36:03;10.55;;;7.63;;
15952;SDS011;8075;47.766;8.846;2023-08-21T09:38:29;8.37;;;7.50;;
15952;SDS011;8075;47.766;8.846;2023-08-21T09:40:55;7.90;;;6.70;;
15952;SDS011;8075;47.766;8.846;2023-08-21T09:43:22;8.07;;;6.68;;
15952;SDS011;8075;47.766;8.846;2023-08-21T09:45:49;7.97;;;6.73;;
15952;SDS011;8075;47.766;8.846;2023-08-21T09:48:17;11.48;;;8.32;;
15952;SDS011;8075;47.766;8.846;2023-08-21T09:50:43;10.13;;;9.07;;
15952;SDS011;8075;47.766;8.846;2023-08-21T09:53:10;11.60;;;9.50;;
15952;SDS011;8075;47.766;8.846;2023-08-21T09:55:36;9.55;;;8.35;;
15952;SDS011;8075;47.766;8.846;2023-08-21T09:58:04;7.85;;;5.57;;
15952;SDS011;8075;47.766;8.846;2023-08-21T10:00:34;6.95;;;5.97;;
15952;SDS011;8075;47.766;8.846;2023-08-21T10:03:01;8.32;;;6.20;;
15952;SDS011;8075;47.766;8.846;2023-08-21T10:05:28;5.88;;;5.38;;
15952;SDS011;8075;47.766;8.846;2023-08-21T10:07:55;6.28;;;5.68;;
15952;SDS011;8075;47.766;8.846;2023-08-21T10:10:21;7.22;;;5.40;;
15952;SDS011;8075;47.766;8.846;2023-08-21T10:12:48;7.15;;;5.88;;
15952;SDS011;8075;47.766;8.846;2023-08-21T10:15:14;6.87;;;6.17;;
15952;SDS011;8075;47.766;8.846;2023-08-21T10:17:41;7.18;;;6.47;;
15952;SDS011;8075;47.766;8.846;2023-08-21T10:20:07;8.77;;;6.13;;
15952;SDS011;8075;47.766;8.846;2023-08-21T10:22:48;6.30;;;5.80;;
15952;SDS011;8075;47.766;8.846;2023-08-21T10:25:21;8.38;;;5.20;;
15952;SDS011;8075;47.766;8.846;2023-08-21T10:27:50;6.68;;;5.18;;
15952;SDS011;8075;47.766;8.846;2023-08-21T10:30:21;6.28;;;5.55;;
15952;SDS011;8075;47.766;8.846;2023-08-21T10:32:48;10.80;;;6.13;;
15952;SDS011;8075;47.766;8.846;2023-08-21T10:35:14;6.27;;;5.70;;
15952;SDS011;8075;47.766;8.846;2023-08-21T10:40:28;9.85;;;7.57;;
15952;SDS011;8075;47.766;8.846;2023-08-21T10:42:54;8.32;;;5.97;;
15952;SDS011;8075;47.766;8.846;2023-08-21T10:45:20;7.13;;;6.53;;
15952;SDS011;8075;47.766;8.846;2023-08-21T10:47:46;7.53;;;5.80;;
15952;SDS011;8075;47.766;8.846;2023-08-21T10:50:14;9.60;;;7.00;;
15952;SDS011;8075;47.766;8.846;2023-08-21T10:52:41;6.53;;;5.22;;
15952;SDS011;8075;47.766;8.846;2023-08-21T10:55:09;5.50;;;4.97;;
15952;SDS011;8075;47.766;8.846;2023-08-21T10:57:36;5.20;;;4.80;;
15952;SDS011;8075;47.766;8.846;2023-08-21T11:00:06;7.15;;;4.32;;
15952;SDS011;8075;47.766;8.846;2023-08-21T11:02:36;4.47;;;4.07;;
15952;SDS011;8075;47.766;8.846;2023-08-21T11:05:03;5.20;;;4.72;;
15952;SDS011;8075;47.766;8.846;2023-08-21T11:07:30;5.03;;;4.63;;
15952;SDS011;8075;47.766;8.846;2023-08-21T11:09:56;5.75;;;5.15;;
15952;SDS011;8075;47.766;8.846;2023-08-21T11:12:23;5.70;;;5.00;;
15952;SDS011;8075;47.766;8.846;2023-08-21T11:14:49;8.90;;;5.57;;
15952;SDS011;8075;47.766;8.846;2023-08-21T11:17:16;5.40;;;4.80;;
15952;SDS011;8075;47.766;8.846;2023-08-21T11:19:43;5.03;;;4.53;;
15952;SDS011;8075;47.766;8.846;2023-08-21T11:22:10;5.55;;;5.05;;
15952;SDS011;8075;47.766;8.846;2023-08-21T11:27:06;5.28;;;4.78;;
15952;SDS011;8075;47.766;8.846;2023-08-21T11:29:39;5.20;;;4.43;;
15952;SDS011;8075;47.766;8.846;2023-08-21T11:32:12;4.70;;;4.20;;
15952;SDS011;8075;47.766;8.846;2023-08-21T11:34:38;7.43;;;4.97;;
15952;SDS011;8075;47.766;8.846;2023-08-21T11:37:04;6.10;;;5.30;;
15952;SDS011;8075;47.766;8.846;2023-08-21T11:42:12;5.68;;;4.47;;
15952;SDS011;8075;47.766;8.846;2023-08-21T11:44:46;5.63;;;4.68;;
15952;SDS011;8075;47.766;8.846;2023-08-21T11:47:12;5.25;;;4.50;;
15952;SDS011;8075;47.766;8.846;2023-08-21T11:49:42;5.55;;;4.30;;
15952;SDS011;8075;47.766;8.846;2023-08-21T11:52:08;4.93;;;3.85;;
15952;SDS011;8075;47.766;8.846;2023-08-21T11:54:35;5.47;;;4.67;;
15952;SDS011;8075;47.766;8.846;2023-08-21T11:57:05;7.13;;;3.97;;
15952;SDS011;8075;47.766;8.846;2023-08-21T11:59:31;5.40;;;3.95;;
15952;SDS011;8075;47.766;8.846;2023-08-21T12:01:57;5.87;;;4.23;;
15952;SDS011;8075;47.766;8.846;2023-08-21T12:04:24;7.13;;;4.70;;
15952;SDS011;8075;47.766;8.846;2023-08-21T12:06:50;5.53;;;3.83;;
15952;SDS011;8075;47.766;8.846;2023-08-21T12:09:16;5.23;;;3.70;;
15952;SDS011;8075;47.766;8.846;2023-08-21T12:11:44;6.17;;;3.30;;
15952;SDS011;8075;47.766;8.846;2023-08-21T12:14:10;7.25;;;4.00;;
15952;SDS011;8075;47.766;8.846;2023-08-21T12:16:36;3.80;;;3.47;;
15952;SDS011;8075;47.766;8.846;2023-08-21T12:19:02;6.40;;;3.83;;
15952;SDS011;8075;47.766;8.846;2023-08-21T12:21:29;6.68;;;3.80;;
15952;SDS011;8075;47.766;8.846;2023-08-21T12:23:55;3.90;;;3.50;;
15952;SDS011;8075;47.766;8.846;2023-08-21T12:26:21;4.60;;;3.75;;
15952;SDS011;8075;47.766;8.846;2023-08-21T12:28:48;5.18;;;3.70;;
15952;SDS011;8075;47.766;8.846;2023-08-21T12:31:14;5.55;;;4.10;;
15952;SDS011;8075;47.766;8.846;2023-08-21T12:33:40;4.40;;;4.00;;
15952;SDS011;8075;47.766;8.846;2023-08-21T12:36:06;4.67;;;3.67;;
15952;SDS011;8075;47.766;8.846;2023-08-21T12:38:35;4.27;;;3.87;;
15952;SDS011;8075;47.766;8.846;2023-08-21T12:41:02;4.43;;;4.00;;
15952;SDS011;8075;47.766;8.846;2023-08-21T12:43:28;5.07;;;3.90;;
15952;SDS011;8075;47.766;8.846;2023-08-21T12:45:54;4.20;;;3.80;;
15952;SDS011;8075;47.766;8.846;2023-08-21T12:48:20;6.13;;;3.80;;
15952;SDS011;8075;47.766;8.846;2023-08-21T12:50:45;4.60;;;4.20;;
15952;SDS011;8075;47.766;8.846;2023-08-21T12:53:12;6.13;;;4.05;;
15952;SDS011;8075;47.766;8.846;2023-08-21T12:55:38;4.47;;;3.80;;
15952;SDS011;8075;47.766;8.846;2023-08-21T12:58:04;6.80;;;3.80;;
15952;SDS011;8075;47.766;8.846;2023-08-21T13:00:30;5.25;;;3.90;;
15952;SDS011;8075;47.766;8.846;2023-08-21T13:02:57;7.20;;;3.67;;
15952;SDS011;8075;47.766;8.846;2023-08-21T13:05:23;4.53;;;3.40;;
15952;SDS011;8075;47.766;8.846;2023-08-21T13:07:49;4.65;;;3.95;;
15952;SDS011;8075;47.766;8.846;2023-08-21T13:10:15;5.50;;;4.00;;
15952;SDS011;8075;47.766;8.846;2023-08-21T13:12:41;4.65;;;3.72;;
15952;SDS011;8075;47.766;8.846;2023-08-21T13:15:07;4.47;;;3.65;;
15952;SDS011;8075;47.766;8.846;2023-08-21T13:17:34;5.47;;;4.83;;
15952;SDS011;8075;47.766;8.846;2023-08-21T13:20:00;5.47;;;3.75;;
15952;SDS011;8075;47.766;8.846;2023-08-21T13:22:26;7.10;;;3.50;;
15952;SDS011;8075;47.766;8.846;2023-08-21T13:24:52;5.55;;;3.45;;
15952;SDS011;8075;47.766;8.846;2023-08-21T13:27:18;4.43;;;3.40;;
15952;SDS011;8075;47.766;8.846;2023-08-21T13:29:45;5.95;;;3.88;;
15952;SDS011;8075;47.766;8.846;2023-08-21T13:32:11;4.05;;;3.65;;
15952;SDS011;8075;47.766;8.846;2023-08-21T13:34:37;6.38;;;3.72;;
15952;SDS011;8075;47.766;8.846;2023-08-21T13:37:03;6.93;;;4.07;;
15952;SDS011;8075;47.766;8.846;2023-08-21T13:39:29;9.63;;;3.80;;
15952;SDS011;8075;47.766;8.846;2023-08-21T13:41:56;4.03;;;3.50;;
15952;SDS011;8075;47.766;8.846;2023-08-21T13:44:22;4.13;;;3.30;;
15952;SDS011;8075;47.766;8.846;2023-08-21T13:46:48;5.40;;;3.45;;
15952;SDS011;8075;47.766;8.846;2023-08-21T13:49:14;6.25;;;3.60;;
15952;SDS011;8075;47.766;8.846;2023-08-21T13:51:40;4.27;;;3.33;;
15952;SDS011;8075;47.766;8.846;2023-08-21T13:54:07;5.18;;;3.65;;
15952;SDS011;8075;47.766;8.846;2023-08-21T13:56:33;8.00;;;3.78;;
15952;SDS011;8075;47.766;8.846;2023-08-21T13:58:59;3.40;;;3.10;;
15952;SDS011;8075;47.766;8.846;2023-08-21T14:01:25;5.03;;;3.72;;
15952;SDS011;8075;47.766;8.846;2023-08-21T14:03:51;5.30;;;3.38;;
15952;SDS011;8075;47.766;8.846;2023-08-21T14:06:17;4.60;;;3.63;;
15952;SDS011;8075;47.766;8.846;2023-08-21T14:08:43;3.57;;;3.27;;
15952;SDS011;8075;47.766;8.846;2023-08-21T14:11:09;4.65;;;3.55;;
15952;SDS011;8075;47.766;8.846;2023-08-21T14:13:35;5.28;;;3.55;;
15952;SDS011;8075;47.766;8.846;2023-08-21T14:16:01;5.88;;;3.75;;
15952;SDS011;8075;47.766;8.846;2023-08-21T14:18:27;4.00;;;3.53;;
15952;SDS011;8075;47.766;8.846;2023-08-21T14:20:53;5.20;;;3.67;;
15952;SDS011;8075;47.766;8.846;2023-08-21T14:23:19;4.20;;;3.80;;
15952;SDS011;8075;47.766;8.846;2023-08-21T14:25:45;5.25;;;3.40;;
15952;SDS011;8075;47.766;8.846;2023-08-21T14:28:11;3.97;;;3.20;;
15952;SDS011;8075;47.766;8.846;2023-08-21T14:30:38;5.00;;;3.35;;
15952;SDS011;8075;47.766;8.846;2023-08-21T14:33:04;4.47;;;3.10;;
15952;SDS011;8075;47.766;8.846;2023-08-21T14:35:30;4.37;;;3.00;;
15952;SDS011;8075;47.766;8.846;2023-08-21T14:37:56;3.22;;;2.80;;
15952;SDS011;8075;47.766;8.846;2023-08-21T14:40:22;5.72;;;3.00;;
15952;SDS011;8075;47.766;8.846;2023-08-21T14:42:48;4.45;;;3.15;;
15952;SDS011;8075;47.766;8.846;2023-08-21T14:45:14;5.55;;;3.33;;
15952;SDS011;8075;47.766;8.846;2023-08-21T14:47:40;4.00;;;2.90;;
15952;SDS011;8075;47.766;8.846;2023-08-21T14:50:06;4.70;;;2.90;;
15952;SDS011;8075;47.766;8.846;2023-08-21T14:52:32;7.45;;;2.88;;
15952;SDS011;8075;47.766;8.846;2023-08-21T14:54:58;3.92;;;2.60;;
15952;SDS011;8075;47.766;8.846;2023-08-21T14:57:24;3.45;;;2.55;;
15952;SDS011;8075;47.766;8.846;2023-08-21T14:59:50;4.60;;;2.60;;
15952;SDS011;8075;47.766;8.846;2023-08-21T15:02:16;3.50;;;2.55;;